• Join FlightAware (Why Join?)
  • Login
  • US Flag 
Rudolph Flight #1: Arrived! 
04:31PM EST


 

Airport Tracker/Info


-or-


 

Live Flight TrackerFlight Track Log ✈ WIG1044 ✈ 06-Aug-2014 ✈ KMHT - KBGR

Flight Track Log - Related Links

Times and Time Zones

All times are in EDT time to prevent confusion due to time zone crossing. See the WIG1044 flight status page for this flight to view local times or setup timezone preferences in your user account.

Time Position Orientation Groundspeed Altitude Reporting Facility
EDT Latitude Longitude Course Direction KTS MPH feet Rate Location/Type
06:59AM 42.9500 -71.4333 56° Northeast 117 135 800  Level KA90
07:00AM 42.9667 -71.4000 56° Northeast 120 138 2,600 1,560 Climbing KA90
07:01AM 43.0000 -71.3667 36° Northeast 152 175 4,000 1,140 Climbing KA90
07:02AM 43.0333 -71.3167 48° Northeast 185 213 4,900 960 Climbing KA90
07:03AM 43.0667 -71.2667 48° Northeast 197 227 6,000 1,020 Climbing KA90
07:04AM 43.1000 -71.2167 48° Northeast 200 230 6,900 960 Climbing KA90
07:05AM 43.1500 -71.1667 36° Northeast 196 226 7,900 900 Climbing KA90
07:06AM 43.1833 -71.1167 48° Northeast 201 231 8,800 420 Climbing KA90
07:08AM 43.2450 -71.0281 46° Northeast 226 260 9,000 60 Climbing Boston Center
07:09AM 43.2908 -70.9644 45° Northeast 232 267 9,000  Level Boston Center
07:10AM 43.3347 -70.9011 46° Northeast 232 267 9,000  Level Boston Center
07:11AM 43.3794 -70.8389 45° Northeast 231 266 9,000  Level Boston Center
07:12AM 43.4289 -70.7731 44° Northeast 231 266 9,000  Level Boston Center
07:13AM 43.4719 -70.7114 46° Northeast 228 262 9,000  Level Boston Center
07:14AM 43.5164 -70.6514 44° Northeast 225 259 9,000  Level Boston Center
07:15AM 43.5614 -70.5906 44° Northeast 226 260 9,000  Level Boston Center
07:16AM 43.6089 -70.5247 45° Northeast 226 260 9,000  Level Boston Center
07:17AM 43.6536 -70.4622 45° Northeast 227 261 9,000  Level Boston Center
07:18AM 43.6983 -70.4003 45° Northeast 227 261 9,000  Level Boston Center
07:19AM 43.7436 -70.3389 44° Northeast 228 262 9,000  Level Boston Center
07:20AM 43.7925 -70.2722 45° Northeast 229 264 9,000  Level Boston Center
07:21AM 43.8364 -70.2108 45° Northeast 230 265 9,000  Level Boston Center
07:22AM 43.8814 -70.1481 45° Northeast 231 266 9,000  Level Boston Center
07:23AM 43.9297 -70.0803 45° Northeast 231 266 9,000  Level Boston Center
07:24AM 43.9758 -70.0169 45° Northeast 232 267 9,000  Level Boston Center
07:25AM 44.0214 -69.9536 45° Northeast 232 267 9,000  Level Boston Center
07:26AM 44.0653 -69.8908 46° Northeast 231 266 9,000  Level Boston Center
07:27AM 44.1144 -69.8219 45° Northeast 231 266 9,000  Level Boston Center
07:28AM 44.1600 -69.7600 44° Northeast 231 266 9,000  Level Boston Center
07:29AM 44.2044 -69.6961 46° Northeast 231 266 9,000  Level Boston Center
07:30AM 44.2461 -69.6328 47° Northeast 231 266 9,000  Level Boston Center
07:31AM 44.2931 -69.5669 45° Northeast 235 270 9,000  Level Boston Center
07:32AM 44.3403 -69.5008 45° Northeast 239 275 9,000  Level Boston Center
07:33AM 44.3778 -69.4222 56° Northeast 247 284 9,000  Level Boston Center
07:34AM 44.4025 -69.3364 68° East 241 277 9,000  Level Boston Center
07:35AM 44.4292 -69.2508 66° East 241 277 9,000 -480 Level Boston Center
07:36AM 44.4617 -69.1453 67° East 242 278 8,100 -960 Descending Boston Center
07:37AM 44.4914 -69.0522 66° East 259 298 7,000 -1,080 Descending Boston Center
07:38AM 44.5186 -68.9631 67° East 256 295 6,000 -1,020 Descending Boston Center
07:39AM 44.5478 -68.8767 65° Northeast 248 285 5,000 -1,020 Descending Boston Center
07:40AM 44.5758 -68.7900 66° East 245 282 4,000 -1,080 Descending Boston Center
07:41AM 44.6125 -68.7147 56° Northeast 238 274 2,900 -780 Descending Boston Center
07:42AM 44.6511 -68.6617 44° Northeast 202 232 2,500 -240 Descending Boston Center
07:43AM 44.6844 -68.6653 356° North 146 168 2,500  Level Boston Center
07:44AM 44.7150 -68.6936 327° Northwest 136 157 2,600 -420 Climbing Boston Center
07:46AM 44.7400 -68.7322 312° West 135 155 1,700 -780 Descending Boston Center
07:47AM 44.7658 -68.7708 313° West 135 155 1,100 -660 Descending Boston Center
07:48AM 44.7892 -68.8033 315° West 129 148 400 -720 Descending Boston Center